sensor_id;sensor_type;location;lat;lon;timestamp;temperature;humidity
20815;DHT22;10568;48.176;16.316;2022-07-04T00:00:18;18.90;99.90
20815;DHT22;10568;48.176;16.316;2022-07-04T00:02:45;18.90;99.90
20815;DHT22;10568;48.176;16.316;2022-07-04T00:05:12;18.90;99.90
20815;DHT22;10568;48.176;16.316;2022-07-04T00:07:43;18.90;99.90
20815;DHT22;10568;48.176;16.316;2022-07-04T00:10:12;18.90;99.90
20815;DHT22;10568;48.176;16.316;2022-07-04T00:12:39;18.90;99.90
20815;DHT22;10568;48.176;16.316;2022-07-04T00:15:05;18.80;99.90
20815;DHT22;10568;48.176;16.316;2022-07-04T00:17:31;18.80;99.90
20815;DHT22;10568;48.176;16.316;2022-07-04T00:19:57;18.90;99.90
20815;DHT22;10568;48.176;16.316;2022-07-04T00:22:23;18.80;99.90
20815;DHT22;10568;48.176;16.316;2022-07-04T00:24:49;18.80;99.90
20815;DHT22;10568;48.176;16.316;2022-07-04T00:27:15;18.80;99.90
20815;DHT22;10568;48.176;16.316;2022-07-04T00:29:41;18.90;99.90
20815;DHT22;10568;48.176;16.316;2022-07-04T00:32:08;18.90;99.90
20815;DHT22;10568;48.176;16.316;2022-07-04T00:34:34;18.80;99.90
20815;DHT22;10568;48.176;16.316;2022-07-04T00:36:59;18.80;99.90
20815;DHT22;10568;48.176;16.316;2022-07-04T00:39:25;18.90;99.90
20815;DHT22;10568;48.176;16.316;2022-07-04T00:41:51;18.90;99.90
20815;DHT22;10568;48.176;16.316;2022-07-04T00:44:17;18.80;99.90
20815;DHT22;10568;48.176;16.316;2022-07-04T00:46:44;18.80;99.90
20815;DHT22;10568;48.176;16.316;2022-07-04T00:49:12;18.90;99.90
20815;DHT22;10568;48.176;16.316;2022-07-04T00:51:39;18.90;99.90
20815;DHT22;10568;48.176;16.316;2022-07-04T00:54:07;18.80;99.90
20815;DHT22;10568;48.176;16.316;2022-07-04T00:56:36;18.80;99.90
20815;DHT22;10568;48.176;16.316;2022-07-04T00:59:03;18.80;99.90
20815;DHT22;10568;48.176;16.316;2022-07-04T01:01:29;18.80;99.90
20815;DHT22;10568;48.176;16.316;2022-07-04T01:03:56;18.70;99.90
20815;DHT22;10568;48.176;16.316;2022-07-04T01:06:22;18.80;99.90
20815;DHT22;10568;48.176;16.316;2022-07-04T01:08:48;18.80;99.90
20815;DHT22;10568;48.176;16.316;2022-07-04T01:11:14;18.70;99.90
20815;DHT22;10568;48.176;16.316;2022-07-04T01:13:41;18.70;99.90
20815;DHT22;10568;48.176;16.316;2022-07-04T01:16:08;18.60;99.90
20815;DHT22;10568;48.176;16.316;2022-07-04T01:18:34;18.50;99.90
20815;DHT22;10568;48.176;16.316;2022-07-04T01:21:00;18.50;99.90
20815;DHT22;10568;48.176;16.316;2022-07-04T01:23:26;18.50;99.90
20815;DHT22;10568;48.176;16.316;2022-07-04T01:25:52;18.50;99.90
20815;DHT22;10568;48.176;16.316;2022-07-04T01:28:19;18.40;99.90
20815;DHT22;10568;48.176;16.316;2022-07-04T01:30:44;18.40;99.90
20815;DHT22;10568;48.176;16.316;2022-07-04T01:33:10;18.40;99.90
20815;DHT22;10568;48.176;16.316;2022-07-04T01:35:36;18.30;99.90
20815;DHT22;10568;48.176;16.316;2022-07-04T01:38:02;18.30;99.90
20815;DHT22;10568;48.176;16.316;2022-07-04T01:40:28;18.30;99.90
20815;DHT22;10568;48.176;16.316;2022-07-04T01:42:54;18.20;99.90
20815;DHT22;10568;48.176;16.316;2022-07-04T01:45:20;18.20;99.90
20815;DHT22;10568;48.176;16.316;2022-07-04T01:47:46;18.10;99.90
20815;DHT22;10568;48.176;16.316;2022-07-04T01:50:12;18.10;99.90
20815;DHT22;10568;48.176;16.316;2022-07-04T01:52:39;18.00;99.90
20815;DHT22;10568;48.176;16.316;2022-07-04T01:55:06;18.00;99.90
20815;DHT22;10568;48.176;16.316;2022-07-04T01:57:32;18.00;99.90
20815;DHT22;10568;48.176;16.316;2022-07-04T01:59:57;17.90;99.90
20815;DHT22;10568;48.176;16.316;2022-07-04T02:02:42;17.90;99.90
20815;DHT22;10568;48.176;16.316;2022-07-04T02:05:07;17.80;99.90
20815;DHT22;10568;48.176;16.316;2022-07-04T02:07:33;17.80;99.90
20815;DHT22;10568;48.176;16.316;2022-07-04T02:09:59;17.80;99.90
20815;DHT22;10568;48.176;16.316;2022-07-04T02:12:25;17.70;99.90
20815;DHT22;10568;48.176;16.316;2022-07-04T02:15:09;17.70;99.90
20815;DHT22;10568;48.176;16.316;2022-07-04T02:17:35;17.70;99.90
20815;DHT22;10568;48.176;16.316;2022-07-04T02:20:00;17.60;99.90
20815;DHT22;10568;48.176;16.316;2022-07-04T02:22:26;17.60;99.90
20815;DHT22;10568;48.176;16.316;2022-07-04T02:24:52;17.60;99.90
20815;DHT22;10568;48.176;16.316;2022-07-04T02:27:18;17.60;99.90
20815;DHT22;10568;48.176;16.316;2022-07-04T02:29:44;17.50;99.90
20815;DHT22;10568;48.176;16.316;2022-07-04T02:32:09;17.50;99.90
20815;DHT22;10568;48.176;16.316;2022-07-04T02:34:35;17.50;99.90
20815;DHT22;10568;48.176;16.316;2022-07-04T02:37:01;17.40;99.90
20815;DHT22;10568;48.176;16.316;2022-07-04T02:39:27;17.50;99.90
20815;DHT22;10568;48.176;16.316;2022-07-04T02:41:53;17.40;99.90
20815;DHT22;10568;48.176;16.316;2022-07-04T02:44:18;17.40;99.90
20815;DHT22;10568;48.176;16.316;2022-07-04T02:46:45;17.40;99.90
20815;DHT22;10568;48.176;16.316;2022-07-04T02:49:11;17.40;99.90
20815;DHT22;10568;48.176;16.316;2022-07-04T02:51:37;17.30;99.90
20815;DHT22;10568;48.176;16.316;2022-07-04T02:54:03;17.30;99.90
20815;DHT22;10568;48.176;16.316;2022-07-04T02:56:28;17.30;99.90
20815;DHT22;10568;48.176;16.316;2022-07-04T02:58:54;17.30;99.90
20815;DHT22;10568;48.176;16.316;2022-07-04T03:01:20;17.20;99.90
20815;DHT22;10568;48.176;16.316;2022-07-04T03:03:46;17.20;99.90
20815;DHT22;10568;48.176;16.316;2022-07-04T03:06:13;17.20;99.90
20815;DHT22;10568;48.176;16.316;2022-07-04T03:08:39;17.20;99.90
20815;DHT22;10568;48.176;16.316;2022-07-04T03:11:05;17.20;99.90
20815;DHT22;10568;48.176;16.316;2022-07-04T03:13:31;17.10;99.90
20815;DHT22;10568;48.176;16.316;2022-07-04T03:15:57;17.20;99.90
20815;DHT22;10568;48.176;16.316;2022-07-04T03:18:23;17.20;99.90
20815;DHT22;10568;48.176;16.316;2022-07-04T03:20:49;17.20;99.90
20815;DHT22;10568;48.176;16.316;2022-07-04T03:23:16;17.20;99.90
20815;DHT22;10568;48.176;16.316;2022-07-04T03:25:42;17.20;99.90
20815;DHT22;10568;48.176;16.316;2022-07-04T03:28:08;17.30;99.90
20815;DHT22;10568;48.176;16.316;2022-07-04T03:30:35;17.30;99.90
20815;DHT22;10568;48.176;16.316;2022-07-04T03:33:01;17.30;99.90
20815;DHT22;10568;48.176;16.316;2022-07-04T03:35:27;17.30;99.90
20815;DHT22;10568;48.176;16.316;2022-07-04T03:37:53;17.40;99.90
20815;DHT22;10568;48.176;16.316;2022-07-04T03:40:20;17.40;99.90
20815;DHT22;10568;48.176;16.316;2022-07-04T03:42:46;17.40;99.90
20815;DHT22;10568;48.176;16.316;2022-07-04T03:45:12;17.50;99.90
20815;DHT22;10568;48.176;16.316;2022-07-04T03:47:38;17.50;99.90
20815;DHT22;10568;48.176;16.316;2022-07-04T03:50:04;17.60;99.90
20815;DHT22;10568;48.176;16.316;2022-07-04T03:52:31;17.60;99.90
20815;DHT22;10568;48.176;16.316;2022-07-04T03:54:57;17.70;99.90
20815;DHT22;10568;48.176;16.316;2022-07-04T03:57:23;17.70;99.90
20815;DHT22;10568;48.176;16.316;2022-07-04T03:59:49;17.70;99.90
20815;DHT22;10568;48.176;16.316;2022-07-04T04:02:15;17.70;99.90
20815;DHT22;10568;48.176;16.316;2022-07-04T04:04:41;17.80;99.90
20815;DHT22;10568;48.176;16.316;2022-07-04T04:07:26;17.80;99.90
20815;DHT22;10568;48.176;16.316;2022-07-04T04:09:51;17.80;99.90
20815;DHT22;10568;48.176;16.316;2022-07-04T04:12:18;17.90;99.90
20815;DHT22;10568;48.176;16.316;2022-07-04T04:14:43;18.00;99.90
20815;DHT22;10568;48.176;16.316;2022-07-04T04:17:09;18.10;99.90
20815;DHT22;10568;48.176;16.316;2022-07-04T04:19:35;18.10;99.90
20815;DHT22;10568;48.176;16.316;2022-07-04T04:22:01;18.20;99.90
20815;DHT22;10568;48.176;16.316;2022-07-04T04:24:26;18.20;99.90
20815;DHT22;10568;48.176;16.316;2022-07-04T04:26:52;18.30;99.90
20815;DHT22;10568;48.176;16.316;2022-07-04T04:29:18;18.30;99.90
20815;DHT22;10568;48.176;16.316;2022-07-04T04:31:44;18.40;99.90
20815;DHT22;10568;48.176;16.316;2022-07-04T04:34:09;18.50;99.90
20815;DHT22;10568;48.176;16.316;2022-07-04T04:36:35;18.60;99.90
20815;DHT22;10568;48.176;16.316;2022-07-04T04:39:01;18.70;99.90
20815;DHT22;10568;48.176;16.316;2022-07-04T04:41:27;18.80;99.90
20815;DHT22;10568;48.176;16.316;2022-07-04T04:43:52;18.90;99.90
20815;DHT22;10568;48.176;16.316;2022-07-04T04:46:18;19.10;99.90
20815;DHT22;10568;48.176;16.316;2022-07-04T04:48:44;19.20;99.90
20815;DHT22;10568;48.176;16.316;2022-07-04T04:51:10;19.40;99.90
20815;DHT22;10568;48.176;16.316;2022-07-04T04:53:35;19.60;99.90
20815;DHT22;10568;48.176;16.316;2022-07-04T04:56:02;19.70;99.90
20815;DHT22;10568;48.176;16.316;2022-07-04T04:58:28;19.80;99.90
20815;DHT22;10568;48.176;16.316;2022-07-04T05:00:53;19.90;99.90
20815;DHT22;10568;48.176;16.316;2022-07-04T05:03:19;20.10;99.90
20815;DHT22;10568;48.176;16.316;2022-07-04T05:05:45;20.20;99.90
20815;DHT22;10568;48.176;16.316;2022-07-04T05:08:11;20.40;99.90
20815;DHT22;10568;48.176;16.316;2022-07-04T05:10:38;20.50;99.90
20815;DHT22;10568;48.176;16.316;2022-07-04T05:13:04;20.70;99.90
20815;DHT22;10568;48.176;16.316;2022-07-04T05:15:30;20.80;99.90
20815;DHT22;10568;48.176;16.316;2022-07-04T05:17:56;20.80;99.90
20815;DHT22;10568;48.176;16.316;2022-07-04T05:20:22;20.90;99.90
20815;DHT22;10568;48.176;16.316;2022-07-04T05:22:48;21.00;99.90
20815;DHT22;10568;48.176;16.316;2022-07-04T05:25:14;21.20;99.90
20815;DHT22;10568;48.176;16.316;2022-07-04T05:27:40;21.40;99.90
20815;DHT22;10568;48.176;16.316;2022-07-04T05:30:07;21.60;99.90
20815;DHT22;10568;48.176;16.316;2022-07-04T05:32:33;21.90;99.90
20815;DHT22;10568;48.176;16.316;2022-07-04T05:34:59;22.10;99.90
20815;DHT22;10568;48.176;16.316;2022-07-04T05:37:25;22.20;99.90
20815;DHT22;10568;48.176;16.316;2022-07-04T05:39:51;22.30;99.90
20815;DHT22;10568;48.176;16.316;2022-07-04T05:42:17;22.30;99.90
20815;DHT22;10568;48.176;16.316;2022-07-04T05:44:43;22.30;99.90
20815;DHT22;10568;48.176;16.316;2022-07-04T05:47:09;22.30;99.90
20815;DHT22;10568;48.176;16.316;2022-07-04T05:49:35;22.30;99.90
20815;DHT22;10568;48.176;16.316;2022-07-04T05:52:02;22.20;99.90
20815;DHT22;10568;48.176;16.316;2022-07-04T05:54:28;22.20;99.90
20815;DHT22;10568;48.176;16.316;2022-07-04T05:56:53;22.20;99.90
20815;DHT22;10568;48.176;16.316;2022-07-04T05:59:19;22.30;99.90
20815;DHT22;10568;48.176;16.316;2022-07-04T06:01:45;22.40;99.90
20815;DHT22;10568;48.176;16.316;2022-07-04T06:04:11;22.50;99.90
20815;DHT22;10568;48.176;16.316;2022-07-04T06:06:37;22.70;99.90
20815;DHT22;10568;48.176;16.316;2022-07-04T06:09:03;22.90;99.90
20815;DHT22;10568;48.176;16.316;2022-07-04T06:11:29;23.10;99.90
20815;DHT22;10568;48.176;16.316;2022-07-04T06:13:57;23.30;99.90
20815;DHT22;10568;48.176;16.316;2022-07-04T06:16:22;23.50;99.90
20815;DHT22;10568;48.176;16.316;2022-07-04T06:18:48;23.80;99.90
20815;DHT22;10568;48.176;16.316;2022-07-04T06:21:14;24.00;99.90
20815;DHT22;10568;48.176;16.316;2022-07-04T06:23:39;24.00;99.90
20815;DHT22;10568;48.176;16.316;2022-07-04T06:26:05;24.30;99.90
20815;DHT22;10568;48.176;16.316;2022-07-04T06:28:31;24.40;99.90
20815;DHT22;10568;48.176;16.316;2022-07-04T06:30:57;24.50;99.90
20815;DHT22;10568;48.176;16.316;2022-07-04T06:33:22;24.60;99.90
20815;DHT22;10568;48.176;16.316;2022-07-04T06:35:48;24.60;99.90
20815;DHT22;10568;48.176;16.316;2022-07-04T06:38:25;24.60;99.90
20815;DHT22;10568;48.176;16.316;2022-07-04T06:40:57;24.50;99.90
20815;DHT22;10568;48.176;16.316;2022-07-04T06:43:23;24.50;99.90
20815;DHT22;10568;48.176;16.316;2022-07-04T06:45:49;24.40;99.90
20815;DHT22;10568;48.176;16.316;2022-07-04T06:48:16;24.50;99.90
20815;DHT22;10568;48.176;16.316;2022-07-04T06:50:42;24.60;99.90
20815;DHT22;10568;48.176;16.316;2022-07-04T06:53:09;24.80;99.90
20815;DHT22;10568;48.176;16.316;2022-07-04T06:55:37;25.00;99.90
20815;DHT22;10568;48.176;16.316;2022-07-04T06:58:05;25.50;99.90
20815;DHT22;10568;48.176;16.316;2022-07-04T07:00:32;26.20;99.90
20815;DHT22;10568;48.176;16.316;2022-07-04T07:02:59;27.00;99.90
20815;DHT22;10568;48.176;16.316;2022-07-04T07:05:26;27.30;99.90
20815;DHT22;10568;48.176;16.316;2022-07-04T07:07:52;27.10;99.90
20815;DHT22;10568;48.176;16.316;2022-07-04T07:10:19;26.80;99.90
20815;DHT22;10568;48.176;16.316;2022-07-04T07:12:45;26.70;99.90
20815;DHT22;10568;48.176;16.316;2022-07-04T07:15:11;26.80;99.90
20815;DHT22;10568;48.176;16.316;2022-07-04T07:17:39;26.90;99.90
20815;DHT22;10568;48.176;16.316;2022-07-04T07:20:05;26.90;99.90
20815;DHT22;10568;48.176;16.316;2022-07-04T07:22:31;26.80;99.90
20815;DHT22;10568;48.176;16.316;2022-07-04T07:24:57;26.80;99.90
20815;DHT22;10568;48.176;16.316;2022-07-04T07:27:23;26.80;99.90
20815;DHT22;10568;48.176;16.316;2022-07-04T07:29:48;26.80;99.90
20815;DHT22;10568;48.176;16.316;2022-07-04T07:32:14;27.10;99.90
20815;DHT22;10568;48.176;16.316;2022-07-04T07:34:40;27.40;99.90
20815;DHT22;10568;48.176;16.316;2022-07-04T07:37:06;27.80;99.90
20815;DHT22;10568;48.176;16.316;2022-07-04T07:39:32;27.90;99.90
20815;DHT22;10568;48.176;16.316;2022-07-04T07:41:58;28.00;99.90
20815;DHT22;10568;48.176;16.316;2022-07-04T07:44:24;28.00;99.90
20815;DHT22;10568;48.176;16.316;2022-07-04T07:46:50;27.70;99.90
20815;DHT22;10568;48.176;16.316;2022-07-04T07:49:16;27.70;99.90
20815;DHT22;10568;48.176;16.316;2022-07-04T07:51:42;27.30;99.90
20815;DHT22;10568;48.176;16.316;2022-07-04T07:54:07;27.10;99.90
20815;DHT22;10568;48.176;16.316;2022-07-04T07:56:33;27.00;99.90
20815;DHT22;10568;48.176;16.316;2022-07-04T07:58:59;27.10;99.90
20815;DHT22;10568;48.176;16.316;2022-07-04T08:01:25;27.20;99.90
20815;DHT22;10568;48.176;16.316;2022-07-04T08:03:50;26.90;99.90
20815;DHT22;10568;48.176;16.316;2022-07-04T08:06:35;27.00;99.90
20815;DHT22;10568;48.176;16.316;2022-07-04T08:09:01;27.10;99.90
20815;DHT22;10568;48.176;16.316;2022-07-04T08:11:27;27.40;99.90
20815;DHT22;10568;48.176;16.316;2022-07-04T08:13:53;27.80;99.90
20815;DHT22;10568;48.176;16.316;2022-07-04T08:16:18;28.20;99.90
20815;DHT22;10568;48.176;16.316;2022-07-04T08:18:44;28.40;99.90
20815;DHT22;10568;48.176;16.316;2022-07-04T08:21:10;28.70;99.90
20815;DHT22;10568;48.176;16.316;2022-07-04T08:23:36;28.70;99.90
20815;DHT22;10568;48.176;16.316;2022-07-04T08:26:03;28.70;99.90
20815;DHT22;10568;48.176;16.316;2022-07-04T08:28:29;29.00;99.90
20815;DHT22;10568;48.176;16.316;2022-07-04T08:30:57;29.20;99.90
20815;DHT22;10568;48.176;16.316;2022-07-04T08:33:25;29.10;99.90
20815;DHT22;10568;48.176;16.316;2022-07-04T08:35:51;29.10;99.90
20815;DHT22;10568;48.176;16.316;2022-07-04T08:38:17;28.80;99.90
20815;DHT22;10568;48.176;16.316;2022-07-04T08:40:44;28.80;99.90
20815;DHT22;10568;48.176;16.316;2022-07-04T08:43:13;28.60;99.90
20815;DHT22;10568;48.176;16.316;2022-07-04T08:45:40;28.50;99.90
20815;DHT22;10568;48.176;16.316;2022-07-04T08:48:08;28.40;99.90
20815;DHT22;10568;48.176;16.316;2022-07-04T08:50:51;28.00;99.90
20815;DHT22;10568;48.176;16.316;2022-07-04T08:53:19;28.00;99.90
20815;DHT22;10568;48.176;16.316;2022-07-04T08:55:48;28.00;99.90
20815;DHT22;10568;48.176;16.316;2022-07-04T08:58:33;28.10;99.90
20815;DHT22;10568;48.176;16.316;2022-07-04T09:01:07;28.30;99.90
20815;DHT22;10568;48.176;16.316;2022-07-04T09:03:34;28.10;99.90
20815;DHT22;10568;48.176;16.316;2022-07-04T09:06:00;28.00;99.90
20815;DHT22;10568;48.176;16.316;2022-07-04T09:08:27;27.90;99.90
20815;DHT22;10568;48.176;16.316;2022-07-04T09:10:53;27.50;99.90
20815;DHT22;10568;48.176;16.316;2022-07-04T09:13:20;27.40;99.90
20815;DHT22;10568;48.176;16.316;2022-07-04T09:15:48;27.30;99.90
20815;DHT22;10568;48.176;16.316;2022-07-04T09:18:26;27.20;99.90
20815;DHT22;10568;48.176;16.316;2022-07-04T09:20:54;27.10;99.90
20815;DHT22;10568;48.176;16.316;2022-07-04T09:23:29;26.90;99.90
20815;DHT22;10568;48.176;16.316;2022-07-04T09:28:33;26.50;99.90
20815;DHT22;10568;48.176;16.316;2022-07-04T09:30:59;26.30;99.90
20815;DHT22;10568;48.176;16.316;2022-07-04T09:33:45;26.20;99.90
20815;DHT22;10568;48.176;16.316;2022-07-04T09:36:15;26.20;99.90
20815;DHT22;10568;48.176;16.316;2022-07-04T09:38:41;26.00;99.90
20815;DHT22;10568;48.176;16.316;2022-07-04T09:41:07;25.90;99.90
20815;DHT22;10568;48.176;16.316;2022-07-04T09:44:05;25.80;99.90
20815;DHT22;10568;48.176;16.316;2022-07-04T09:46:32;25.80;99.90
20815;DHT22;10568;48.176;16.316;2022-07-04T09:48:59;25.80;99.90
20815;DHT22;10568;48.176;16.316;2022-07-04T09:54:19;26.10;99.90
20815;DHT22;10568;48.176;16.316;2022-07-04T09:56:51;26.10;99.90
20815;DHT22;10568;48.176;16.316;2022-07-04T09:59:18;26.30;99.90
20815;DHT22;10568;48.176;16.316;2022-07-04T10:01:44;26.20;99.90
20815;DHT22;10568;48.176;16.316;2022-07-04T10:04:10;26.20;99.90
20815;DHT22;10568;48.176;16.316;2022-07-04T10:06:40;26.10;99.90
20815;DHT22;10568;48.176;16.316;2022-07-04T10:09:12;26.10;99.90
20815;DHT22;10568;48.176;16.316;2022-07-04T10:11:39;26.10;99.90
20815;DHT22;10568;48.176;16.316;2022-07-04T10:14:07;26.10;99.90
20815;DHT22;10568;48.176;16.316;2022-07-04T10:16:34;26.00;99.90
20815;DHT22;10568;48.176;16.316;2022-07-04T10:19:00;26.00;99.90
20815;DHT22;10568;48.176;16.316;2022-07-04T10:21:26;25.90;99.90
20815;DHT22;10568;48.176;16.316;2022-07-04T10:23:53;26.00;99.90
20815;DHT22;10568;48.176;16.316;2022-07-04T10:26:22;26.00;99.90
20815;DHT22;10568;48.176;16.316;2022-07-04T10:28:51;26.10;99.90
20815;DHT22;10568;48.176;16.316;2022-07-04T10:31:21;26.20;99.90
20815;DHT22;10568;48.176;16.316;2022-07-04T10:33:48;26.40;99.90
20815;DHT22;10568;48.176;16.316;2022-07-04T10:36:19;26.60;99.90
20815;DHT22;10568;48.176;16.316;2022-07-04T10:39:00;26.80;99.90
20815;DHT22;10568;48.176;16.316;2022-07-04T10:41:28;27.00;99.90
20815;DHT22;10568;48.176;16.316;2022-07-04T10:43:57;27.30;99.90
20815;DHT22;10568;48.176;16.316;2022-07-04T10:46:32;27.80;99.90
20815;DHT22;10568;48.176;16.316;2022-07-04T10:49:21;28.20;99.90
20815;DHT22;10568;48.176;16.316;2022-07-04T10:51:49;28.10;99.90
20815;DHT22;10568;48.176;16.316;2022-07-04T10:54:30;28.40;99.90
20815;DHT22;10568;48.176;16.316;2022-07-04T10:57:16;28.60;99.90
20815;DHT22;10568;48.176;16.316;2022-07-04T11:00:05;29.00;99.90
20815;DHT22;10568;48.176;16.316;2022-07-04T11:02:30;29.30;99.90
20815;DHT22;10568;48.176;16.316;2022-07-04T11:05:04;30.00;99.90
20815;DHT22;10568;48.176;16.316;2022-07-04T11:18:07;31.70;99.90
20815;DHT22;10568;48.176;16.316;2022-07-04T11:20:37;31.50;99.00
20815;DHT22;10568;48.176;16.316;2022-07-04T11:23:16;31.80;98.50
20815;DHT22;10568;48.176;16.316;2022-07-04T11:25:44;32.20;97.70
20815;DHT22;10568;48.176;16.316;2022-07-04T11:28:24;32.90;98.70
20815;DHT22;10568;48.176;16.316;2022-07-04T11:30:52;33.20;97.50
20815;DHT22;10568;48.176;16.316;2022-07-04T11:33:28;32.80;95.60
20815;DHT22;10568;48.176;16.316;2022-07-04T11:39:02;32.10;96.20
20815;DHT22;10568;48.176;16.316;2022-07-04T11:41:34;31.70;97.30
20815;DHT22;10568;48.176;16.316;2022-07-04T11:44:24;31.70;97.90
20815;DHT22;10568;48.176;16.316;2022-07-04T11:47:10;31.40;96.60
20815;DHT22;10568;48.176;16.316;2022-07-04T11:49:44;31.40;96.80
20815;DHT22;10568;48.176;16.316;2022-07-04T11:52:10;31.40;97.80
20815;DHT22;10568;48.176;16.316;2022-07-04T11:54:37;31.30;96.00
20815;DHT22;10568;48.176;16.316;2022-07-04T11:57:33;31.20;96.90
20815;DHT22;10568;48.176;16.316;2022-07-04T12:00:00;31.20;97.10
20815;DHT22;10568;48.176;16.316;2022-07-04T12:02:28;31.40;96.90
20815;DHT22;10568;48.176;16.316;2022-07-04T12:04:55;31.70;96.40
20815;DHT22;10568;48.176;16.316;2022-07-04T12:07:24;32.50;96.00
20815;DHT22;10568;48.176;16.316;2022-07-04T12:09:51;32.60;98.40
20815;DHT22;10568;48.176;16.316;2022-07-04T12:12:17;32.90;96.40
20815;DHT22;10568;48.176;16.316;2022-07-04T12:15:01;32.90;97.50
20815;DHT22;10568;48.176;16.316;2022-07-04T12:17:38;33.40;94.60
20815;DHT22;10568;48.176;16.316;2022-07-04T12:20:14;33.50;94.80
20815;DHT22;10568;48.176;16.316;2022-07-04T12:22:57;34.00;96.10
20815;DHT22;10568;48.176;16.316;2022-07-04T12:25:31;34.30;96.90
20815;DHT22;10568;48.176;16.316;2022-07-04T12:28:03;34.10;92.00
20815;DHT22;10568;48.176;16.316;2022-07-04T12:30:34;34.50;92.30
20815;DHT22;10568;48.176;16.316;2022-07-04T12:33:08;34.60;91.10
20815;DHT22;10568;48.176;16.316;2022-07-04T12:35:44;35.10;93.80
20815;DHT22;10568;48.176;16.316;2022-07-04T12:43:47;35.20;92.40
20815;DHT22;10568;48.176;16.316;2022-07-04T12:48:50;35.60;91.40
20815;DHT22;10568;48.176;16.316;2022-07-04T12:51:31;35.80;90.00
20815;DHT22;10568;48.176;16.316;2022-07-04T12:53:58;35.80;89.10
20815;DHT22;10568;48.176;16.316;2022-07-04T12:57:02;35.80;90.80
20815;DHT22;10568;48.176;16.316;2022-07-04T12:59:28;35.80;91.00
20815;DHT22;10568;48.176;16.316;2022-07-04T13:01:54;35.90;90.60
20815;DHT22;10568;48.176;16.316;2022-07-04T13:04:19;35.50;88.70
20815;DHT22;10568;48.176;16.316;2022-07-04T13:06:45;35.50;86.70
20815;DHT22;10568;48.176;16.316;2022-07-04T13:09:15;35.40;90.20
20815;DHT22;10568;48.176;16.316;2022-07-04T13:11:41;36.00;87.30
20815;DHT22;10568;48.176;16.316;2022-07-04T13:14:25;36.30;89.90
20815;DHT22;10568;48.176;16.316;2022-07-04T13:16:51;36.00;87.70
20815;DHT22;10568;48.176;16.316;2022-07-04T13:19:17;35.40;85.20
20815;DHT22;10568;48.176;16.316;2022-07-04T13:21:43;35.80;86.10
20815;DHT22;10568;48.176;16.316;2022-07-04T13:24:09;35.80;88.30
20815;DHT22;10568;48.176;16.316;2022-07-04T13:26:35;35.90;86.30
20815;DHT22;10568;48.176;16.316;2022-07-04T13:29:02;36.10;86.60
20815;DHT22;10568;48.176;16.316;2022-07-04T13:31:28;35.60;85.30
20815;DHT22;10568;48.176;16.316;2022-07-04T13:33:54;35.60;87.50
20815;DHT22;10568;48.176;16.316;2022-07-04T13:36:20;35.80;85.30
20815;DHT22;10568;48.176;16.316;2022-07-04T13:38:45;35.60;85.90
20815;DHT22;10568;48.176;16.316;2022-07-04T13:41:11;35.20;86.30
20815;DHT22;10568;48.176;16.316;2022-07-04T13:43:37;35.10;89.40
20815;DHT22;10568;48.176;16.316;2022-07-04T13:46:03;34.50;86.00
20815;DHT22;10568;48.176;16.316;2022-07-04T13:48:29;34.00;84.90
20815;DHT22;10568;48.176;16.316;2022-07-04T13:50:55;34.20;87.50
20815;DHT22;10568;48.176;16.316;2022-07-04T13:53:21;33.90;86.50
20815;DHT22;10568;48.176;16.316;2022-07-04T13:55:47;33.60;88.00
20815;DHT22;10568;48.176;16.316;2022-07-04T13:58:12;33.20;91.70
20815;DHT22;10568;48.176;16.316;2022-07-04T14:00:38;33.20;88.00
20815;DHT22;10568;48.176;16.316;2022-07-04T14:03:07;33.40;91.90
20815;DHT22;10568;48.176;16.316;2022-07-04T14:05:33;33.60;90.70
20815;DHT22;10568;48.176;16.316;2022-07-04T14:07:59;33.50;90.70
20815;DHT22;10568;48.176;16.316;2022-07-04T14:10:25;33.60;88.10
20815;DHT22;10568;48.176;16.316;2022-07-04T14:12:51;33.60;89.10
20815;DHT22;10568;48.176;16.316;2022-07-04T14:15:17;33.60;87.50
20815;DHT22;10568;48.176;16.316;2022-07-04T14:17:42;33.80;91.10
20815;DHT22;10568;48.176;16.316;2022-07-04T14:20:10;33.70;91.30
20815;DHT22;10568;48.176;16.316;2022-07-04T14:22:37;33.60;91.50
20815;DHT22;10568;48.176;16.316;2022-07-04T14:25:04;33.50;94.50
20815;DHT22;10568;48.176;16.316;2022-07-04T14:27:31;33.50;87.40
20815;DHT22;10568;48.176;16.316;2022-07-04T14:29:57;33.30;88.10
20815;DHT22;10568;48.176;16.316;2022-07-04T14:32:22;33.10;89.50
20815;DHT22;10568;48.176;16.316;2022-07-04T14:34:48;33.20;90.80
20815;DHT22;10568;48.176;16.316;2022-07-04T14:37:14;33.10;94.10
20815;DHT22;10568;48.176;16.316;2022-07-04T14:39:40;32.90;90.30
20815;DHT22;10568;48.176;16.316;2022-07-04T14:42:06;33.00;92.10
20815;DHT22;10568;48.176;16.316;2022-07-04T14:44:32;32.90;93.50
20815;DHT22;10568;48.176;16.316;2022-07-04T14:47:03;32.80;91.70
20815;DHT22;10568;48.176;16.316;2022-07-04T14:49:29;32.60;90.40
20815;DHT22;10568;48.176;16.316;2022-07-04T14:51:55;32.40;90.80
20815;DHT22;10568;48.176;16.316;2022-07-04T14:54:23;32.10;92.40
20815;DHT22;10568;48.176;16.316;2022-07-04T14:56:49;31.80;90.70
20815;DHT22;10568;48.176;16.316;2022-07-04T14:59:15;31.70;92.60
20815;DHT22;10568;48.176;16.316;2022-07-04T15:01:41;31.50;90.10
20815;DHT22;10568;48.176;16.316;2022-07-04T15:04:08;31.30;91.10
20815;DHT22;10568;48.176;16.316;2022-07-04T15:06:34;31.20;92.90
20815;DHT22;10568;48.176;16.316;2022-07-04T15:09:02;31.10;91.70
20815;DHT22;10568;48.176;16.316;2022-07-04T15:11:28;30.90;92.00
20815;DHT22;10568;48.176;16.316;2022-07-04T15:13:54;30.70;93.90
20815;DHT22;10568;48.176;16.316;2022-07-04T15:16:20;30.70;93.90
20815;DHT22;10568;48.176;16.316;2022-07-04T15:18:45;30.60;92.00
20815;DHT22;10568;48.176;16.316;2022-07-04T15:21:11;30.40;92.30
20815;DHT22;10568;48.176;16.316;2022-07-04T15:23:55;30.30;93.40
20815;DHT22;10568;48.176;16.316;2022-07-04T15:26:37;30.10;92.30
20815;DHT22;10568;48.176;16.316;2022-07-04T15:29:02;30.00;91.80
20815;DHT22;10568;48.176;16.316;2022-07-04T15:31:28;30.00;93.00
20815;DHT22;10568;48.176;16.316;2022-07-04T15:33:54;29.80;92.40
20815;DHT22;10568;48.176;16.316;2022-07-04T15:36:19;29.60;93.20
20815;DHT22;10568;48.176;16.316;2022-07-04T15:38:47;29.50;94.50
20815;DHT22;10568;48.176;16.316;2022-07-04T15:41:13;29.40;93.10
20815;DHT22;10568;48.176;16.316;2022-07-04T15:43:41;29.20;91.80
20815;DHT22;10568;48.176;16.316;2022-07-04T15:46:07;29.00;93.20